sensor_id;sensor_type;location;lat;lon;timestamp;temperature;humidity
8939;DHT22;4504;48.810;9.172;2022-07-18T00:00:32;22.00;51.50
8939;DHT22;4504;48.810;9.172;2022-07-18T00:02:58;22.00;51.70
8939;DHT22;4504;48.810;9.172;2022-07-18T00:05:25;21.90;51.50
8939;DHT22;4504;48.810;9.172;2022-07-18T00:07:52;21.90;51.30
8939;DHT22;4504;48.810;9.172;2022-07-18T00:10:19;21.90;51.70
8939;DHT22;4504;48.810;9.172;2022-07-18T00:12:46;21.80;52.20
8939;DHT22;4504;48.810;9.172;2022-07-18T00:15:13;21.80;52.40
8939;DHT22;4504;48.810;9.172;2022-07-18T00:17:41;21.80;52.20
8939;DHT22;4504;48.810;9.172;2022-07-18T00:20:10;21.70;51.70
8939;DHT22;4504;48.810;9.172;2022-07-18T00:22:37;21.60;51.60
8939;DHT22;4504;48.810;9.172;2022-07-18T00:25:05;21.60;51.60
8939;DHT22;4504;48.810;9.172;2022-07-18T00:27:33;21.60;51.70
8939;DHT22;4504;48.810;9.172;2022-07-18T00:29:59;21.50;51.10
8939;DHT22;4504;48.810;9.172;2022-07-18T00:32:26;21.60;51.60
8939;DHT22;4504;48.810;9.172;2022-07-18T00:34:54;21.60;51.30
8939;DHT22;4504;48.810;9.172;2022-07-18T00:37:21;21.60;51.60
8939;DHT22;4504;48.810;9.172;2022-07-18T00:39:48;21.50;51.30
8939;DHT22;4504;48.810;9.172;2022-07-18T00:42:15;21.50;51.40
8939;DHT22;4504;48.810;9.172;2022-07-18T00:44:42;21.40;52.30
8939;DHT22;4504;48.810;9.172;2022-07-18T00:47:09;21.40;52.70
8939;DHT22;4504;48.810;9.172;2022-07-18T00:49:36;21.30;52.50
8939;DHT22;4504;48.810;9.172;2022-07-18T00:52:04;21.30;52.00
8939;DHT22;4504;48.810;9.172;2022-07-18T00:54:31;21.20;52.30
8939;DHT22;4504;48.810;9.172;2022-07-18T00:56:58;21.20;52.50
8939;DHT22;4504;48.810;9.172;2022-07-18T00:59:26;21.20;52.70
8939;DHT22;4504;48.810;9.172;2022-07-18T01:02:13;21.00;52.80
8939;DHT22;4504;48.810;9.172;2022-07-18T01:04:39;21.00;53.10
8939;DHT22;4504;48.810;9.172;2022-07-18T01:07:07;21.00;52.80
8939;DHT22;4504;48.810;9.172;2022-07-18T01:09:35;21.00;52.30
8939;DHT22;4504;48.810;9.172;2022-07-18T01:12:02;21.00;51.80
8939;DHT22;4504;48.810;9.172;2022-07-18T01:14:30;21.00;51.80
8939;DHT22;4504;48.810;9.172;2022-07-18T01:16:58;20.90;51.90
8939;DHT22;4504;48.810;9.172;2022-07-18T01:19:24;21.00;51.80
8939;DHT22;4504;48.810;9.172;2022-07-18T01:21:52;21.00;51.90
8939;DHT22;4504;48.810;9.172;2022-07-18T01:24:19;21.00;52.40
8939;DHT22;4504;48.810;9.172;2022-07-18T01:26:46;21.00;52.30
8939;DHT22;4504;48.810;9.172;2022-07-18T01:29:13;21.00;52.40
8939;DHT22;4504;48.810;9.172;2022-07-18T01:31:40;20.90;52.40
8939;DHT22;4504;48.810;9.172;2022-07-18T01:34:07;20.90;53.10
8939;DHT22;4504;48.810;9.172;2022-07-18T01:36:34;20.80;53.40
8939;DHT22;4504;48.810;9.172;2022-07-18T01:39:02;20.80;53.50
8939;DHT22;4504;48.810;9.172;2022-07-18T01:41:29;20.80;53.60
8939;DHT22;4504;48.810;9.172;2022-07-18T01:43:56;20.70;53.80
8939;DHT22;4504;48.810;9.172;2022-07-18T01:46:23;20.70;54.40
8939;DHT22;4504;48.810;9.172;2022-07-18T01:48:49;20.60;54.40
8939;DHT22;4504;48.810;9.172;2022-07-18T01:51:16;20.60;54.70
8939;DHT22;4504;48.810;9.172;2022-07-18T01:53:54;20.50;54.90
8939;DHT22;4504;48.810;9.172;2022-07-18T01:56:23;20.50;55.40
8939;DHT22;4504;48.810;9.172;2022-07-18T01:58:50;20.40;55.80
8939;DHT22;4504;48.810;9.172;2022-07-18T02:01:17;20.40;56.30
8939;DHT22;4504;48.810;9.172;2022-07-18T02:03:43;20.30;56.50
8939;DHT22;4504;48.810;9.172;2022-07-18T02:06:10;20.30;56.80
8939;DHT22;4504;48.810;9.172;2022-07-18T02:08:37;20.20;57.20
8939;DHT22;4504;48.810;9.172;2022-07-18T02:11:04;20.20;57.50
8939;DHT22;4504;48.810;9.172;2022-07-18T02:13:32;20.20;57.60
8939;DHT22;4504;48.810;9.172;2022-07-18T02:15:59;20.30;57.90
8939;DHT22;4504;48.810;9.172;2022-07-18T02:18:26;20.20;57.80
8939;DHT22;4504;48.810;9.172;2022-07-18T02:20:53;20.20;58.10
8939;DHT22;4504;48.810;9.172;2022-07-18T02:23:20;20.20;58.20
8939;DHT22;4504;48.810;9.172;2022-07-18T02:25:47;20.20;58.40
8939;DHT22;4504;48.810;9.172;2022-07-18T02:28:14;20.20;58.20
8939;DHT22;4504;48.810;9.172;2022-07-18T02:30:42;20.10;58.10
8939;DHT22;4504;48.810;9.172;2022-07-18T02:33:09;20.10;58.40
8939;DHT22;4504;48.810;9.172;2022-07-18T02:35:36;20.00;58.50
8939;DHT22;4504;48.810;9.172;2022-07-18T02:38:03;19.90;58.80
8939;DHT22;4504;48.810;9.172;2022-07-18T02:40:30;19.80;59.00
8939;DHT22;4504;48.810;9.172;2022-07-18T02:42:56;19.80;59.20
8939;DHT22;4504;48.810;9.172;2022-07-18T02:45:23;19.70;59.50
8939;DHT22;4504;48.810;9.172;2022-07-18T02:47:52;19.60;59.90
8939;DHT22;4504;48.810;9.172;2022-07-18T02:50:19;19.50;60.60
8939;DHT22;4504;48.810;9.172;2022-07-18T02:52:46;19.40;60.90
8939;DHT22;4504;48.810;9.172;2022-07-18T02:55:14;19.40;61.40
8939;DHT22;4504;48.810;9.172;2022-07-18T02:57:41;19.30;61.90
8939;DHT22;4504;48.810;9.172;2022-07-18T03:00:10;19.30;62.80
8939;DHT22;4504;48.810;9.172;2022-07-18T03:02:37;19.30;63.20
8939;DHT22;4504;48.810;9.172;2022-07-18T03:05:07;19.20;63.30
8939;DHT22;4504;48.810;9.172;2022-07-18T03:07:34;19.20;63.50
8939;DHT22;4504;48.810;9.172;2022-07-18T03:10:01;19.20;63.70
8939;DHT22;4504;48.810;9.172;2022-07-18T03:12:28;19.10;63.90
8939;DHT22;4504;48.810;9.172;2022-07-18T03:14:55;19.20;64.30
8939;DHT22;4504;48.810;9.172;2022-07-18T03:17:21;19.10;64.50
8939;DHT22;4504;48.810;9.172;2022-07-18T03:19:48;19.10;64.90
8939;DHT22;4504;48.810;9.172;2022-07-18T03:22:17;19.10;65.30
8939;DHT22;4504;48.810;9.172;2022-07-18T03:24:43;19.00;65.30
8939;DHT22;4504;48.810;9.172;2022-07-18T03:27:10;19.10;65.70
8939;DHT22;4504;48.810;9.172;2022-07-18T03:29:37;19.00;65.60
8939;DHT22;4504;48.810;9.172;2022-07-18T03:32:04;19.00;65.80
8939;DHT22;4504;48.810;9.172;2022-07-18T03:34:32;19.00;66.00
8939;DHT22;4504;48.810;9.172;2022-07-18T03:36:59;19.00;66.10
8939;DHT22;4504;48.810;9.172;2022-07-18T03:39:27;19.00;66.20
8939;DHT22;4504;48.810;9.172;2022-07-18T03:41:54;19.00;66.20
8939;DHT22;4504;48.810;9.172;2022-07-18T03:44:21;19.00;66.80
8939;DHT22;4504;48.810;9.172;2022-07-18T03:46:48;18.90;66.70
8939;DHT22;4504;48.810;9.172;2022-07-18T03:49:17;19.00;67.10
8939;DHT22;4504;48.810;9.172;2022-07-18T03:51:44;18.90;67.20
8939;DHT22;4504;48.810;9.172;2022-07-18T03:54:11;18.90;67.40
8939;DHT22;4504;48.810;9.172;2022-07-18T03:56:39;18.90;67.40
8939;DHT22;4504;48.810;9.172;2022-07-18T03:59:06;19.00;71.90
8939;DHT22;4504;48.810;9.172;2022-07-18T04:01:33;19.00;71.70
8939;DHT22;4504;48.810;9.172;2022-07-18T04:04:00;19.00;73.70
8939;DHT22;4504;48.810;9.172;2022-07-18T04:06:26;18.90;74.10
8939;DHT22;4504;48.810;9.172;2022-07-18T04:08:53;18.90;74.60
8939;DHT22;4504;48.810;9.172;2022-07-18T04:11:20;18.90;73.70
8939;DHT22;4504;48.810;9.172;2022-07-18T04:13:51;18.90;74.10
8939;DHT22;4504;48.810;9.172;2022-07-18T04:16:19;18.90;71.30
8939;DHT22;4504;48.810;9.172;2022-07-18T04:18:46;18.90;71.30
8939;DHT22;4504;48.810;9.172;2022-07-18T04:21:14;18.90;71.50
8939;DHT22;4504;48.810;9.172;2022-07-18T04:23:41;18.90;71.20
8939;DHT22;4504;48.810;9.172;2022-07-18T04:26:08;18.90;71.30
8939;DHT22;4504;48.810;9.172;2022-07-18T04:28:35;18.90;72.20
8939;DHT22;4504;48.810;9.172;2022-07-18T04:31:04;19.00;71.50
8939;DHT22;4504;48.810;9.172;2022-07-18T04:33:30;19.00;73.40
8939;DHT22;4504;48.810;9.172;2022-07-18T04:35:57;19.00;71.60
8939;DHT22;4504;48.810;9.172;2022-07-18T04:38:24;19.00;73.50
8939;DHT22;4504;48.810;9.172;2022-07-18T04:40:51;19.00;72.80
8939;DHT22;4504;48.810;9.172;2022-07-18T04:43:18;19.00;71.80
8939;DHT22;4504;48.810;9.172;2022-07-18T04:45:45;19.10;71.70
8939;DHT22;4504;48.810;9.172;2022-07-18T04:48:13;19.00;71.50
8939;DHT22;4504;48.810;9.172;2022-07-18T04:50:40;19.10;71.40
8939;DHT22;4504;48.810;9.172;2022-07-18T04:53:06;19.10;71.00
8939;DHT22;4504;48.810;9.172;2022-07-18T04:55:33;19.10;71.20
8939;DHT22;4504;48.810;9.172;2022-07-18T04:58:00;19.10;71.30
8939;DHT22;4504;48.810;9.172;2022-07-18T05:00:27;19.20;71.10
8939;DHT22;4504;48.810;9.172;2022-07-18T05:02:55;19.20;71.00
8939;DHT22;4504;48.810;9.172;2022-07-18T05:05:25;19.20;70.80
8939;DHT22;4504;48.810;9.172;2022-07-18T05:07:53;19.20;70.90
8939;DHT22;4504;48.810;9.172;2022-07-18T05:10:21;19.30;71.10
8939;DHT22;4504;48.810;9.172;2022-07-18T05:12:50;19.30;72.20
8939;DHT22;4504;48.810;9.172;2022-07-18T05:15:19;19.30;71.60
8939;DHT22;4504;48.810;9.172;2022-07-18T05:17:46;19.30;71.30
8939;DHT22;4504;48.810;9.172;2022-07-18T05:20:16;19.40;72.10
8939;DHT22;4504;48.810;9.172;2022-07-18T05:22:45;19.50;72.40
8939;DHT22;4504;48.810;9.172;2022-07-18T05:25:13;19.40;73.70
8939;DHT22;4504;48.810;9.172;2022-07-18T05:27:40;19.40;75.30
8939;DHT22;4504;48.810;9.172;2022-07-18T05:30:10;19.30;74.30
8939;DHT22;4504;48.810;9.172;2022-07-18T05:32:38;19.30;75.10
8939;DHT22;4504;48.810;9.172;2022-07-18T05:35:06;19.40;74.30
8939;DHT22;4504;48.810;9.172;2022-07-18T05:37:33;19.40;73.20
8939;DHT22;4504;48.810;9.172;2022-07-18T05:40:06;19.40;72.50
8939;DHT22;4504;48.810;9.172;2022-07-18T05:42:33;19.40;71.40
8939;DHT22;4504;48.810;9.172;2022-07-18T05:45:01;19.40;74.60
8939;DHT22;4504;48.810;9.172;2022-07-18T05:47:28;19.40;73.90
8939;DHT22;4504;48.810;9.172;2022-07-18T05:49:55;19.40;74.20
8939;DHT22;4504;48.810;9.172;2022-07-18T05:52:22;19.40;73.10
8939;DHT22;4504;48.810;9.172;2022-07-18T05:54:49;19.40;75.60
8939;DHT22;4504;48.810;9.172;2022-07-18T05:57:18;19.40;73.20
8939;DHT22;4504;48.810;9.172;2022-07-18T05:59:45;19.40;70.90
8939;DHT22;4504;48.810;9.172;2022-07-18T06:02:13;19.50;72.70
8939;DHT22;4504;48.810;9.172;2022-07-18T06:04:41;19.50;71.00
8939;DHT22;4504;48.810;9.172;2022-07-18T06:07:08;19.60;73.50
8939;DHT22;4504;48.810;9.172;2022-07-18T06:09:35;19.60;73.70
8939;DHT22;4504;48.810;9.172;2022-07-18T06:12:03;19.70;73.40
8939;DHT22;4504;48.810;9.172;2022-07-18T06:14:32;19.70;71.60
8939;DHT22;4504;48.810;9.172;2022-07-18T06:16:59;19.80;71.70
8939;DHT22;4504;48.810;9.172;2022-07-18T06:19:26;19.80;73.40
8939;DHT22;4504;48.810;9.172;2022-07-18T06:21:53;19.90;72.00
8939;DHT22;4504;48.810;9.172;2022-07-18T06:24:20;19.90;72.40
8939;DHT22;4504;48.810;9.172;2022-07-18T06:26:47;19.90;73.20
8939;DHT22;4504;48.810;9.172;2022-07-18T06:29:15;19.90;72.30
8939;DHT22;4504;48.810;9.172;2022-07-18T06:31:44;19.90;71.80
8939;DHT22;4504;48.810;9.172;2022-07-18T06:34:11;20.00;71.90
8939;DHT22;4504;48.810;9.172;2022-07-18T06:36:38;20.00;72.20
8939;DHT22;4504;48.810;9.172;2022-07-18T06:39:05;20.00;72.50
8939;DHT22;4504;48.810;9.172;2022-07-18T06:41:37;20.10;71.30
8939;DHT22;4504;48.810;9.172;2022-07-18T06:44:06;20.20;71.00
8939;DHT22;4504;48.810;9.172;2022-07-18T06:46:36;20.20;71.80
8939;DHT22;4504;48.810;9.172;2022-07-18T06:49:05;20.30;70.20
8939;DHT22;4504;48.810;9.172;2022-07-18T06:51:33;20.30;71.50
8939;DHT22;4504;48.810;9.172;2022-07-18T06:54:00;20.30;70.70
8939;DHT22;4504;48.810;9.172;2022-07-18T06:56:27;20.40;71.40
8939;DHT22;4504;48.810;9.172;2022-07-18T06:58:54;20.30;70.50
8939;DHT22;4504;48.810;9.172;2022-07-18T07:01:21;20.40;70.80
8939;DHT22;4504;48.810;9.172;2022-07-18T07:03:49;20.60;70.70
8939;DHT22;4504;48.810;9.172;2022-07-18T07:06:17;20.50;70.90
8939;DHT22;4504;48.810;9.172;2022-07-18T07:08:44;20.60;70.40
8939;DHT22;4504;48.810;9.172;2022-07-18T07:11:11;20.70;70.40
8939;DHT22;4504;48.810;9.172;2022-07-18T07:13:39;20.70;70.20
8939;DHT22;4504;48.810;9.172;2022-07-18T07:16:06;20.80;71.10
8939;DHT22;4504;48.810;9.172;2022-07-18T07:18:33;20.80;70.80
8939;DHT22;4504;48.810;9.172;2022-07-18T07:21:00;20.90;71.10
8939;DHT22;4504;48.810;9.172;2022-07-18T07:23:29;20.90;70.80
8939;DHT22;4504;48.810;9.172;2022-07-18T07:25:56;20.90;70.80
8939;DHT22;4504;48.810;9.172;2022-07-18T07:28:23;21.00;70.30
8939;DHT22;4504;48.810;9.172;2022-07-18T07:30:50;21.10;70.30
8939;DHT22;4504;48.810;9.172;2022-07-18T07:33:17;21.20;69.90
8939;DHT22;4504;48.810;9.172;2022-07-18T07:35:44;21.20;69.50
8939;DHT22;4504;48.810;9.172;2022-07-18T07:38:11;21.30;69.40
8939;DHT22;4504;48.810;9.172;2022-07-18T07:40:45;21.40;69.30
8939;DHT22;4504;48.810;9.172;2022-07-18T07:43:16;21.40;69.60
8939;DHT22;4504;48.810;9.172;2022-07-18T07:45:47;21.50;69.10
8939;DHT22;4504;48.810;9.172;2022-07-18T07:48:16;21.60;69.10
8939;DHT22;4504;48.810;9.172;2022-07-18T07:50:44;21.60;68.70
8939;DHT22;4504;48.810;9.172;2022-07-18T07:53:11;21.60;68.60
8939;DHT22;4504;48.810;9.172;2022-07-18T07:55:38;21.70;68.40
8939;DHT22;4504;48.810;9.172;2022-07-18T07:58:07;21.80;67.10
8939;DHT22;4504;48.810;9.172;2022-07-18T08:00:35;21.90;66.10
8939;DHT22;4504;48.810;9.172;2022-07-18T08:03:04;21.90;66.80
8939;DHT22;4504;48.810;9.172;2022-07-18T08:05:34;22.00;66.30
8939;DHT22;4504;48.810;9.172;2022-07-18T08:08:01;22.00;65.70
8939;DHT22;4504;48.810;9.172;2022-07-18T08:10:29;22.10;65.70
8939;DHT22;4504;48.810;9.172;2022-07-18T08:12:56;22.10;64.00
8939;DHT22;4504;48.810;9.172;2022-07-18T08:15:28;22.20;64.70
8939;DHT22;4504;48.810;9.172;2022-07-18T08:17:55;22.30;64.30
8939;DHT22;4504;48.810;9.172;2022-07-18T08:20:23;22.40;64.50
8939;DHT22;4504;48.810;9.172;2022-07-18T08:22:58;22.40;63.30
8939;DHT22;4504;48.810;9.172;2022-07-18T08:25:26;22.50;62.10
8939;DHT22;4504;48.810;9.172;2022-07-18T08:27:54;22.60;63.80
8939;DHT22;4504;48.810;9.172;2022-07-18T08:30:21;22.60;62.50
8939;DHT22;4504;48.810;9.172;2022-07-18T08:32:49;22.70;61.30
8939;DHT22;4504;48.810;9.172;2022-07-18T08:35:17;22.70;61.50
8939;DHT22;4504;48.810;9.172;2022-07-18T08:37:45;22.80;61.50
8939;DHT22;4504;48.810;9.172;2022-07-18T08:40:12;22.80;60.30
8939;DHT22;4504;48.810;9.172;2022-07-18T08:42:40;22.90;58.80
8939;DHT22;4504;48.810;9.172;2022-07-18T08:45:08;23.00;57.60
8939;DHT22;4504;48.810;9.172;2022-07-18T08:47:35;23.10;56.90
8939;DHT22;4504;48.810;9.172;2022-07-18T08:50:08;23.20;57.60
8939;DHT22;4504;48.810;9.172;2022-07-18T08:52:35;23.20;56.60
8939;DHT22;4504;48.810;9.172;2022-07-18T08:55:06;23.30;55.90
8939;DHT22;4504;48.810;9.172;2022-07-18T08:57:34;23.30;55.10
8939;DHT22;4504;48.810;9.172;2022-07-18T09:00:02;23.50;55.80
8939;DHT22;4504;48.810;9.172;2022-07-18T09:02:32;23.40;54.10
8939;DHT22;4504;48.810;9.172;2022-07-18T09:05:01;23.50;54.40
8939;DHT22;4504;48.810;9.172;2022-07-18T09:07:31;23.60;54.60
8939;DHT22;4504;48.810;9.172;2022-07-18T09:10:03;23.60;53.90
8939;DHT22;4504;48.810;9.172;2022-07-18T09:12:31;23.80;55.00
8939;DHT22;4504;48.810;9.172;2022-07-18T09:15:04;23.80;53.90
8939;DHT22;4504;48.810;9.172;2022-07-18T09:17:34;23.80;53.20
8939;DHT22;4504;48.810;9.172;2022-07-18T09:20:05;23.90;53.30
8939;DHT22;4504;48.810;9.172;2022-07-18T09:22:36;24.00;53.00
8939;DHT22;4504;48.810;9.172;2022-07-18T09:25:06;24.00;52.00
8939;DHT22;4504;48.810;9.172;2022-07-18T09:27:37;24.10;50.60
8939;DHT22;4504;48.810;9.172;2022-07-18T09:30:20;24.20;49.50
8939;DHT22;4504;48.810;9.172;2022-07-18T09:32:49;24.20;51.20
8939;DHT22;4504;48.810;9.172;2022-07-18T09:35:20;24.30;50.20
8939;DHT22;4504;48.810;9.172;2022-07-18T09:37:54;24.40;49.40
8939;DHT22;4504;48.810;9.172;2022-07-18T09:40:23;24.40;49.30
8939;DHT22;4504;48.810;9.172;2022-07-18T09:42:51;24.50;48.60
8939;DHT22;4504;48.810;9.172;2022-07-18T09:45:23;24.60;48.70
8939;DHT22;4504;48.810;9.172;2022-07-18T09:47:53;24.60;46.80
8939;DHT22;4504;48.810;9.172;2022-07-18T09:50:23;24.70;46.80
8939;DHT22;4504;48.810;9.172;2022-07-18T09:53:09;24.80;47.40
8939;DHT22;4504;48.810;9.172;2022-07-18T09:55:43;24.80;47.20
8939;DHT22;4504;48.810;9.172;2022-07-18T09:58:10;24.90;48.00
8939;DHT22;4504;48.810;9.172;2022-07-18T10:00:39;25.00;46.40
8939;DHT22;4504;48.810;9.172;2022-07-18T10:03:08;25.10;46.90
8939;DHT22;4504;48.810;9.172;2022-07-18T10:05:39;25.10;47.20
8939;DHT22;4504;48.810;9.172;2022-07-18T10:08:36;25.20;47.20
8939;DHT22;4504;48.810;9.172;2022-07-18T10:11:23;25.30;46.90
8939;DHT22;4504;48.810;9.172;2022-07-18T10:14:10;25.30;46.80
8939;DHT22;4504;48.810;9.172;2022-07-18T10:17:06;25.40;47.70
8939;DHT22;4504;48.810;9.172;2022-07-18T10:19:34;25.40;46.20
8939;DHT22;4504;48.810;9.172;2022-07-18T10:22:01;25.40;45.00
8939;DHT22;4504;48.810;9.172;2022-07-18T10:24:30;25.60;44.30
8939;DHT22;4504;48.810;9.172;2022-07-18T10:27:15;25.60;44.80
8939;DHT22;4504;48.810;9.172;2022-07-18T10:30:07;25.70;44.80
8939;DHT22;4504;48.810;9.172;2022-07-18T10:32:34;25.70;44.20
8939;DHT22;4504;48.810;9.172;2022-07-18T10:35:02;25.80;42.60
8939;DHT22;4504;48.810;9.172;2022-07-18T10:37:36;26.00;44.20
8939;DHT22;4504;48.810;9.172;2022-07-18T10:40:27;26.00;44.40
8939;DHT22;4504;48.810;9.172;2022-07-18T10:43:34;26.10;44.60
8939;DHT22;4504;48.810;9.172;2022-07-18T10:46:03;26.20;43.50
8939;DHT22;4504;48.810;9.172;2022-07-18T10:48:55;26.40;44.20
8939;DHT22;4504;48.810;9.172;2022-07-18T10:51:32;26.50;43.70
8939;DHT22;4504;48.810;9.172;2022-07-18T10:54:12;26.50;43.40
8939;DHT22;4504;48.810;9.172;2022-07-18T10:57:07;26.60;42.60
8939;DHT22;4504;48.810;9.172;2022-07-18T10:59:39;26.70;43.10
8939;DHT22;4504;48.810;9.172;2022-07-18T11:02:07;26.80;41.90
8939;DHT22;4504;48.810;9.172;2022-07-18T11:04:37;26.90;42.10
8939;DHT22;4504;48.810;9.172;2022-07-18T11:07:07;26.90;41.60
8939;DHT22;4504;48.810;9.172;2022-07-18T11:09:43;27.00;41.70
8939;DHT22;4504;48.810;9.172;2022-07-18T11:12:36;27.10;41.90
8939;DHT22;4504;48.810;9.172;2022-07-18T11:15:22;27.10;41.40
8939;DHT22;4504;48.810;9.172;2022-07-18T11:18:02;27.10;40.50
8939;DHT22;4504;48.810;9.172;2022-07-18T11:20:45;27.30;40.30
8939;DHT22;4504;48.810;9.172;2022-07-18T11:23:16;27.40;40.40
8939;DHT22;4504;48.810;9.172;2022-07-18T11:25:44;27.50;41.00
8939;DHT22;4504;48.810;9.172;2022-07-18T11:28:13;27.50;39.20
8939;DHT22;4504;48.810;9.172;2022-07-18T11:30:41;27.50;40.00
8939;DHT22;4504;48.810;9.172;2022-07-18T11:33:24;27.60;40.60
8939;DHT22;4504;48.810;9.172;2022-07-18T11:35:52;27.50;41.00
8939;DHT22;4504;48.810;9.172;2022-07-18T11:38:19;27.50;40.50
8939;DHT22;4504;48.810;9.172;2022-07-18T11:40:50;27.60;41.70
8939;DHT22;4504;48.810;9.172;2022-07-18T11:43:23;27.70;40.10
8939;DHT22;4504;48.810;9.172;2022-07-18T11:46:06;27.70;40.90
8939;DHT22;4504;48.810;9.172;2022-07-18T11:48:35;27.80;40.30
8939;DHT22;4504;48.810;9.172;2022-07-18T11:51:08;27.80;38.20
8939;DHT22;4504;48.810;9.172;2022-07-18T11:53:36;27.90;38.20
8939;DHT22;4504;48.810;9.172;2022-07-18T11:56:06;28.00;39.80
8939;DHT22;4504;48.810;9.172;2022-07-18T11:58:43;28.00;39.20
8939;DHT22;4504;48.810;9.172;2022-07-18T12:01:11;28.10;38.90
8939;DHT22;4504;48.810;9.172;2022-07-18T12:03:44;28.10;37.60
8939;DHT22;4504;48.810;9.172;2022-07-18T12:06:14;28.20;37.90
8939;DHT22;4504;48.810;9.172;2022-07-18T12:08:42;28.30;38.30
8939;DHT22;4504;48.810;9.172;2022-07-18T12:11:14;28.40;36.70
8939;DHT22;4504;48.810;9.172;2022-07-18T12:13:53;28.40;36.00
8939;DHT22;4504;48.810;9.172;2022-07-18T12:16:39;28.50;36.40
8939;DHT22;4504;48.810;9.172;2022-07-18T12:19:08;28.70;36.60
8939;DHT22;4504;48.810;9.172;2022-07-18T12:21:51;28.70;36.30
8939;DHT22;4504;48.810;9.172;2022-07-18T12:26:49;29.00;35.50
8939;DHT22;4504;48.810;9.172;2022-07-18T12:30:03;29.10;35.40
8939;DHT22;4504;48.810;9.172;2022-07-18T12:32:38;29.10;35.10
8939;DHT22;4504;48.810;9.172;2022-07-18T12:35:07;29.20;36.20
8939;DHT22;4504;48.810;9.172;2022-07-18T12:37:38;29.30;35.70
8939;DHT22;4504;48.810;9.172;2022-07-18T12:40:07;29.30;35.50
8939;DHT22;4504;48.810;9.172;2022-07-18T12:42:38;29.40;36.10
8939;DHT22;4504;48.810;9.172;2022-07-18T12:45:08;29.50;36.80
8939;DHT22;4504;48.810;9.172;2022-07-18T12:47:39;29.60;35.60
8939;DHT22;4504;48.810;9.172;2022-07-18T12:50:07;29.60;35.10
8939;DHT22;4504;48.810;9.172;2022-07-18T12:52:35;29.80;35.80
8939;DHT22;4504;48.810;9.172;2022-07-18T12:55:03;29.90;34.60
8939;DHT22;4504;48.810;9.172;2022-07-18T12:57:30;30.20;35.00
8939;DHT22;4504;48.810;9.172;2022-07-18T12:59:57;30.50;34.30
8939;DHT22;4504;48.810;9.172;2022-07-18T13:02:34;30.60;34.00
8939;DHT22;4504;48.810;9.172;2022-07-18T13:05:06;30.70;33.40
8939;DHT22;4504;48.810;9.172;2022-07-18T13:07:42;31.00;32.60
8939;DHT22;4504;48.810;9.172;2022-07-18T13:10:12;31.00;32.10
8939;DHT22;4504;48.810;9.172;2022-07-18T13:12:39;30.80;32.60
8939;DHT22;4504;48.810;9.172;2022-07-18T13:15:14;30.90;33.30
8939;DHT22;4504;48.810;9.172;2022-07-18T13:17:42;30.90;33.70
8939;DHT22;4504;48.810;9.172;2022-07-18T13:20:10;30.90;33.20
8939;DHT22;4504;48.810;9.172;2022-07-18T13:22:38;30.90;34.00
8939;DHT22;4504;48.810;9.172;2022-07-18T13:25:06;31.00;33.70
8939;DHT22;4504;48.810;9.172;2022-07-18T13:27:34;31.20;33.80
8939;DHT22;4504;48.810;9.172;2022-07-18T13:30:01;31.20;34.00
8939;DHT22;4504;48.810;9.172;2022-07-18T13:32:29;31.20;33.60
8939;DHT22;4504;48.810;9.172;2022-07-18T13:34:58;31.00;33.50
8939;DHT22;4504;48.810;9.172;2022-07-18T13:37:26;31.10;33.00
8939;DHT22;4504;48.810;9.172;2022-07-18T13:39:54;31.10;33.80
8939;DHT22;4504;48.810;9.172;2022-07-18T13:42:30;31.10;34.10
8939;DHT22;4504;48.810;9.172;2022-07-18T13:44:57;31.00;33.90
8939;DHT22;4504;48.810;9.172;2022-07-18T13:47:25;31.20;34.30
8939;DHT22;4504;48.810;9.172;2022-07-18T13:49:54;31.30;34.60
8939;DHT22;4504;48.810;9.172;2022-07-18T13:52:22;31.50;34.50
8939;DHT22;4504;48.810;9.172;2022-07-18T13:55:15;31.60;33.90
8939;DHT22;4504;48.810;9.172;2022-07-18T13:57:51;31.80;34.70
8939;DHT22;4504;48.810;9.172;2022-07-18T14:00:18;32.00;32.50
8939;DHT22;4504;48.810;9.172;2022-07-18T14:03:21;31.90;33.10
8939;DHT22;4504;48.810;9.172;2022-07-18T14:06:42;31.90;33.60
8939;DHT22;4504;48.810;9.172;2022-07-18T14:09:11;32.00;34.30
8939;DHT22;4504;48.810;9.172;2022-07-18T14:11:55;32.20;34.90
8939;DHT22;4504;48.810;9.172;2022-07-18T14:14:35;32.20;33.40
8939;DHT22;4504;48.810;9.172;2022-07-18T14:17:04;32.20;33.20
8939;DHT22;4504;48.810;9.172;2022-07-18T14:19:31;32.20;33.10
8939;DHT22;4504;48.810;9.172;2022-07-18T14:21:59;32.10;32.10
8939;DHT22;4504;48.810;9.172;2022-07-18T14:24:27;32.20;32.80
8939;DHT22;4504;48.810;9.172;2022-07-18T14:26:54;32.30;32.60
8939;DHT22;4504;48.810;9.172;2022-07-18T14:29:22;32.40;33.50
8939;DHT22;4504;48.810;9.172;2022-07-18T14:31:49;32.60;33.50
8939;DHT22;4504;48.810;9.172;2022-07-18T14:34:25;32.60;33.80
8939;DHT22;4504;48.810;9.172;2022-07-18T14:37:01;32.70;33.80
8939;DHT22;4504;48.810;9.172;2022-07-18T14:39:29;32.90;33.60
8939;DHT22;4504;48.810;9.172;2022-07-18T14:41:56;33.00;32.60
8939;DHT22;4504;48.810;9.172;2022-07-18T14:44:24;33.00;31.40
8939;DHT22;4504;48.810;9.172;2022-07-18T14:46:52;33.00;31.70
8939;DHT22;4504;48.810;9.172;2022-07-18T14:49:19;33.10;31.10
8939;DHT22;4504;48.810;9.172;2022-07-18T14:51:46;33.10;32.00
8939;DHT22;4504;48.810;9.172;2022-07-18T14:54:13;33.10;31.70
8939;DHT22;4504;48.810;9.172;2022-07-18T14:56:42;33.20;32.00
8939;DHT22;4504;48.810;9.172;2022-07-18T14:59:09;33.00;31.10
8939;DHT22;4504;48.810;9.172;2022-07-18T15:01:36;32.80;31.80
8939;DHT22;4504;48.810;9.172;2022-07-18T15:04:03;32.80;32.10
8939;DHT22;4504;48.810;9.172;2022-07-18T15:06:30;32.80;31.70
8939;DHT22;4504;48.810;9.172;2022-07-18T15:08:57;32.80;32.30
8939;DHT22;4504;48.810;9.172;2022-07-18T15:11:24;32.80;31.80
8939;DHT22;4504;48.810;9.172;2022-07-18T15:13:53;33.00;31.40
8939;DHT22;4504;48.810;9.172;2022-07-18T15:16:21;33.10;30.50
8939;DHT22;4504;48.810;9.172;2022-07-18T15:18:48;33.00;30.50
8939;DHT22;4504;48.810;9.172;2022-07-18T15:21:15;33.30;30.00
8939;DHT22;4504;48.810;9.172;2022-07-18T15:23:42;33.00;30.60
8939;DHT22;4504;48.810;9.172;2022-07-18T15:26:09;33.00;31.30
8939;DHT22;4504;48.810;9.172;2022-07-18T15:28:36;33.10;31.40
8939;DHT22;4504;48.810;9.172;2022-07-18T15:31:05;33.10;31.10
8939;DHT22;4504;48.810;9.172;2022-07-18T15:33:32;33.30;31.50
8939;DHT22;4504;48.810;9.172;2022-07-18T15:35:59;33.20;30.50
8939;DHT22;4504;48.810;9.172;2022-07-18T15:38:27;33.30;30.40
8939;DHT22;4504;48.810;9.172;2022-07-18T15:40:54;33.40;30.70
8939;DHT22;4504;48.810;9.172;2022-07-18T15:43:21;33.30;30.00
8939;DHT22;4504;48.810;9.172;2022-07-18T15:45:48;33.20;29.80
8939;DHT22;4504;48.810;9.172;2022-07-18T15:48:17;33.30;29.90
8939;DHT22;4504;48.810;9.172;2022-07-18T15:50:44;33.30;29.30
8939;DHT22;4504;48.810;9.172;2022-07-18T15:53:11;33.40;29.80
8939;DHT22;4504;48.810;9.172;2022-07-18T15:55:38;33.60;30.00
8939;DHT22;4504;48.810;9.172;2022-07-18T15:58:05;33.90;30.10
8939;DHT22;4504;48.810;9.172;2022-07-18T16:00:32;34.00;29.30
8939;DHT22;4504;48.810;9.172;2022-07-18T16:02:59;34.10;29.70
8939;DHT22;4504;48.810;9.172;2022-07-18T16:05:28;34.00;28.90
8939;DHT22;4504;48.810;9.172;2022-07-18T16:07:55;33.80;29.00
8939;DHT22;4504;48.810;9.172;2022-07-18T16:10:22;33.90;29.20
8939;DHT22;4504;48.810;9.172;2022-07-18T16:12:52;33.70;28.80
8939;DHT22;4504;48.810;9.172;2022-07-18T16:15:19;33.70;29.10
8939;DHT22;4504;48.810;9.172;2022-07-18T16:17:46;33.60;29.20
8939;DHT22;4504;48.810;9.172;2022-07-18T16:20:13;33.90;29.30